»·PEaware :: N19947 KAVX-KSDM

N19947 :: KAVX-KSDM

FLIGHT INFORMATION

Flight Status: Arrived
Operator: Privately registered:
United States
More flights under this callsign
Pilot: Adam A. (5112)
Aircraft: CESSNA 172 SKYHAWK
(C172)
More flights by this aircraft type
Origin: KAVX Catalina
United States
Destination: KSDM Brown Mun
United States
More flights between these airports :: More routes between these airports
Route: SXC V208 OCN V23 MZB
File this flight plan on PilotEdge
Remarks: REQUEST VOR APP INTO SDM / SIM IMC TO MINS ACTIVE
Altitude:
(Current/Filed)
5,000ft
Speed:
(Current/Filed)
120kts
Departed: 20-Nov-15 04:14 PM
Arrived: 20-Nov-15 05:07 PM
Distance/Time
Traveled:
88nm/0:53
Distance/Time
To Go:
Arrived

Flight Plot

Page will automatically refresh every two minutes.


Map Options




Map Legend


Flown Route
Filed Route
Departure Airport
Arrival Airport
Navaid (VOR, NDB)
Fix

Horizontal Profiles

Position Reports

Time Latitude Longitude Heading Altitude Ground
Speed
20-Nov-15 15:51 33.403291 -118.415948 45 1605ft 0kts
20-Nov-15 15:52 33.403291 -118.415948 45 1605ft 0kts
20-Nov-15 15:53 33.403291 -118.415948 45 1605ft 0kts
20-Nov-15 15:54 33.403291 -118.415948 45 1605ft 0kts
20-Nov-15 15:55 33.403291 -118.415948 45 1605ft 0kts
20-Nov-15 15:56 33.403291 -118.415948 45 1605ft 0kts
20-Nov-15 15:57 33.403291 -118.415948 45 1605ft 0kts
20-Nov-15 15:58 33.403291 -118.415948 45 1605ft 0kts
20-Nov-15 15:59 33.403291 -118.415948 45 1605ft 0kts
20-Nov-15 16:00 33.403291 -118.415948 45 1605ft 0kts
20-Nov-15 16:01 33.403291 -118.415948 45 1605ft 0kts
20-Nov-15 16:02 33.403291 -118.415948 45 1605ft 0kts
20-Nov-15 16:03 33.403291 -118.415948 45 1605ft 0kts
20-Nov-15 16:04 33.403291 -118.415948 45 1605ft 0kts
20-Nov-15 16:05 33.403291 -118.415948 45 1605ft 0kts
20-Nov-15 16:06 33.403291 -118.415948 45 1605ft 0kts
20-Nov-15 16:07 33.403291 -118.415948 45 1605ft 0kts
20-Nov-15 16:08 33.403470 -118.415729 47 1605ft 8kts
20-Nov-15 16:09 33.405894 -118.413537 54 1605ft 16kts
20-Nov-15 16:10 33.407188 -118.411355 341 1605ft 0kts
20-Nov-15 16:10 33.407188 -118.411355 341 1605ft 0kts
20-Nov-15 16:11 33.403625 -118.418007 235 1667ft 74kts
20-Nov-15 16:12 33.390710 -118.436331 200 2581ft 66kts
20-Nov-15 16:13 33.377369 -118.413417 123 2973ft 107kts
20-Nov-15 16:14 33.369267 -118.378916 99 3476ft 111kts
20-Nov-15 16:16 33.363226 -118.336506 98 4057ft 111kts
20-Nov-15 16:16 33.358919 -118.306310 98 4471ft 110kts
20-Nov-15 16:17 33.353784 -118.270355 98 4959ft 111kts
20-Nov-15 16:18 33.348121 -118.230753 98 5001ft 127kts
20-Nov-15 16:19 33.343747 -118.200299 98 5000ft 129kts
20-Nov-15 16:20 33.337659 -118.157961 98 5018ft 129kts
20-Nov-15 16:21 33.331558 -118.115585 98 5018ft 130kts
20-Nov-15 16:22 33.325415 -118.073001 98 5018ft 130kts
20-Nov-15 16:23 33.319290 -118.030644 98 5018ft 130kts
20-Nov-15 16:24 33.316691 -117.987596 93 5018ft 130kts
20-Nov-15 16:25 33.312646 -117.944656 95 5019ft 130kts
20-Nov-15 16:26 33.307740 -117.901714 96 5019ft 130kts
20-Nov-15 16:27 33.302494 -117.859461 97 5017ft 130kts
20-Nov-15 16:28 33.297027 -117.816758 97 5017ft 130kts
20-Nov-15 16:29 33.290827 -117.774261 99 5017ft 130kts
20-Nov-15 16:30 33.284624 -117.731548 98 5017ft 130kts
20-Nov-15 16:31 33.278708 -117.689058 98 5017ft 130kts
20-Nov-15 16:32 33.272762 -117.646469 98 5017ft 130kts
20-Nov-15 16:33 33.266787 -117.603776 98 5017ft 130kts
20-Nov-15 16:34 33.259450 -117.561378 101 5017ft 130kts
20-Nov-15 16:35 33.253322 -117.518796 97 5018ft 130kts
20-Nov-15 16:36 33.247937 -117.476012 97 5018ft 130kts
20-Nov-15 16:37 33.231165 -117.439285 131 5018ft 129kts
20-Nov-15 16:38 33.207788 -117.406353 133 5017ft 130kts
20-Nov-15 16:39 33.175227 -117.390178 162 5018ft 127kts
20-Nov-15 16:40 33.141997 -117.375707 163 5018ft 127kts
20-Nov-15 16:41 33.108553 -117.361283 163 5023ft 127kts
20-Nov-15 16:42 33.075013 -117.346890 163 5000ft 128kts
20-Nov-15 16:44 33.041573 -117.332579 163 5000ft 127kts
20-Nov-15 16:45 33.008109 -117.318586 164 5000ft 127kts
20-Nov-15 16:46 32.974361 -117.305435 165 5000ft 127kts
20-Nov-15 16:47 32.940756 -117.292253 164 5000ft 127kts
20-Nov-15 16:48 32.907210 -117.278448 163 5000ft 127kts
20-Nov-15 16:49 32.874263 -117.264601 163 5000ft 127kts
20-Nov-15 16:50 32.840891 -117.250448 163 5000ft 127kts
20-Nov-15 16:51 32.807418 -117.236080 156 4996ft 129kts
20-Nov-15 16:52 32.779097 -117.209976 121 4995ft 130kts
20-Nov-15 16:53 32.778769 -117.167223 86 4758ft 133kts
20-Nov-15 16:54 32.779415 -117.123855 88 4258ft 129kts
20-Nov-15 16:55 32.779311 -117.082584 89 3996ft 114kts
20-Nov-15 16:56 32.773232 -117.044969 117 4002ft 122kts
20-Nov-15 16:57 32.753761 -117.009562 151 3715ft 136kts
20-Nov-15 16:58 32.718563 -117.001298 173 3065ft 122kts
20-Nov-15 16:59 32.686672 -116.994750 173 2406ft 104kts
20-Nov-15 17:00 32.654796 -116.988251 173 1865ft 124kts
20-Nov-15 17:01 32.620856 -116.981278 173 1203ft 112kts
20-Nov-15 17:02 32.593277 -116.980803 194 1233ft 94kts
20-Nov-15 17:03 32.579717 -116.959781 85 1104ft 80kts
20-Nov-15 17:04 32.570874 -116.958966 277 791ft 65kts
20-Nov-15 17:05 32.572274 -116.975722 277 528ft 27kts
20-Nov-15 17:06 32.572378 -116.984110 198 528ft 22kts
20-Nov-15 17:07 32.569885 -116.987203 241 528ft 12kts

Navigation Log

Ident Type
Flight plan parsing failed, navigation log unavailable